Douglas, North Dakota
Current Conditions -  °F | °C
As of 1:54 PM on Wednesday 26 Nov 2014 (Local Time) from KMOT Reporting Station
Clear Clear  
Wind Chill: -22°   Ceiling: Unl
Heat Index: -16°   Visibility: 10mi
Dew Point: -20°   Wind: 7mph
Humidity: 70%   Direction: 330°NNW
Pressure: 30.4"   Gusts: NA
Location:  47.86°N, 101.5°W
Report Text: KMOT 261954Z 33006KT 10SM CLR M16/M20 A3040 RMK AO2 SLP343 T11561200
Loading
Personal Weather Stations






























Interactive Weather Map New forecast layout! Learn more

10-Day Weather Forecast

Advertisements
Track Severe Weather on mobile